パゴパゴ国際空港の過去48時間の天気

パゴパゴ国際空港 (Pago Pago / Int. Airport)

現在時刻: 9/22 07:26 SST (9/22 18:26 UTC) 以下の時間は現地時間です。

過去48時間のMETAR気象情報
時間 風向 風速(m/s) 視程 気温(℃) 湿度(%) 気圧(hPa) 天気現象
22 06:00 南東 5 10km以上 26.4 76 1010.7
22 05:50 南東 5 10km以上 26.4 76 1010.7
22 05:00 東南東 6 10km以上 26.3 78 1010.3
22 04:50 東南東 6 10km以上 26.3 78 1010.3
22 04:00 南東 6 10km以上 26.3 75 1010.3
22 03:50 南東 6 10km以上 26.3 75 1010.3
22 03:00 南南東 6 10km以上 26.2 81 1010.3
22 02:50 南南東 6 10km以上 26.2 81 1010.3
22 02:00 南南東 7 10km以上 25.9 82 1011.2
22 01:50 南南東 7 10km以上 25.9 82 1011.2
22 01:00 南東 6 10km以上 25.8 81 1011.7
22 00:50 南東 6 10km以上 25.8 81 1011.7
22 00:00 南南東 6 10km以上 25.5 82 1012.4
21 23:50 南南東 6 10km以上 25.5 82 1012.4
21 23:00 南南東 8 10km以上 25.1 87 1012.7 弱いしゅう雨
21 22:50 南南東 8 10km以上 25.1 87 1012.7 弱いしゅう雨
21 22:00 南南東 6 10km以上 25.5 86 1013 弱いしゅう雨
21 21:50 南南東 6 10km以上 25.5 86 1013 弱いしゅう雨
21 20:00 南南東 7 10km以上 25.2 88 1012.5 弱いしゅう雨
21 19:50 南南東 7 10km以上 25.2 88 1012.5 弱いしゅう雨
21 19:00 7 10km以上 25.2 89 1012 弱いしゅう雨
21 18:50 7 10km以上 25.2 89 1012 弱いしゅう雨
21 18:00 7 8050m 24.7 89 1011.3 しゅう雨
21 17:50 7 8050m 24.7 89 1011.3 しゅう雨
21 16:00 南西 6 1600m 24.6 86 1010.7 弱いしゅう雨
21 15:50 南西 6 1600m 24.6 86 1010.7 弱いしゅう雨
21 15:00 4 10km以上 27.9 84 1011
21 14:50 3 10km以上 26.8 84 1010.5
21 13:00 5 10km以上 30.4 74 1012.5
21 11:50 6 10km以上 28.5 81 1011.3 弱いしゅう雨
21 09:50 5 10km以上 30.4 74 1012.5
21 08:00 6 10km以上 28.1 80 1012.2
21 07:50 6 10km以上 28.1 80 1012.2
21 07:00 4 10km以上 27.3 83 1011.7
21 06:50 4 10km以上 27.3 83 1011.7
21 06:00 6 10km以上 26.9 83 1010.8
21 05:50 6 10km以上 26.9 83 1010.8
21 05:00 東南東 5 10km以上 26.9 84 1010.3
21 04:50 東南東 5 10km以上 26.9 84 1010.3
21 04:00 東南東 5 10km以上 26.9 83 1010.3
21 03:50 東南東 5 10km以上 26.9 83 1010.3
21 02:51 東南東 6 10km以上 27 81 1010.5
21 02:00 東南東 6 10km以上 27 81 1011.2
21 01:50 東南東 6 10km以上 27 81 1011.2
21 01:00 東南東 6 10km以上 27.1 81 1011.3
21 00:50 東南東 6 10km以上 27.1 81 1011.3
21 00:00 東南東 6 10km以上 27.2 80 1012.2
20 23:50 東南東 6 10km以上 27.2 80 1012.2
20 23:00 東南東 5 10km以上 27.2 81 1012.7
20 22:50 東南東 5 10km以上 27.2 81 1012.7
20 22:00 南東 6 10km以上 27.2 83 1012.9
20 21:50 南東 6 10km以上 27.2 83 1012.9
20 21:00 東南東 8 10km以上 27.5 80 1013
20 20:50 東南東 8 10km以上 27.5 80 1013
20 20:00 南東 6 10km以上 27.6 81 1012.7
20 19:50 南東 6 10km以上 27.6 81 1012.7
20 19:00 南東 6 10km以上 27.6 79 1012
20 18:50 南東 6 10km以上 27.6 79 1012
20 18:00 東南東 5 10km以上 27.7 76 1011.9
20 16:00 南東 5 10km以上 28.6 78 1011.3
20 15:50 南東 5 10km以上 28.6 78 1011.3
20 14:51 南東 4 10km以上 28.6 77 1011.5
20 14:00 南南東 4 10km以上 28.6 77 1012
20 13:50 南南東 4 10km以上 28.6 77 1012
20 13:00 南東 4 10km以上 30 73 1013
20 12:50 南東 4 10km以上 30 73 1013
20 12:00 南東 4 10km以上 28.9 75 1013.4
20 11:50 南東 4 10km以上 28.9 75 1013.4
20 11:00 不定 2 10km以上 29.1 78 1014.1
20 10:50 不定 2 10km以上 29.1 78 1014.1
20 10:00 不定 1 10km以上 28.2 78 1014.4
20 09:50 不定 1 10km以上 28.2 78 1014.4
20 09:00 静穏 0 10km以上 27.9 79 1014.4
20 08:50 静穏 0 10km以上 27.9 79 1014.4
NSTU 221700Z 14009KT 12SM FEW021 SCT040 BKN100 26/22 A2984 RMK SLP107 T02640219
NSTU 221650Z 14009KT 12SM FEW021 SCT040 BKN100 26/22 A2984 RMK SLP107 T02640219
NSTU 221600Z 12012KT 10SM SCT020 BKN040 BKN100 26/22 A2983 RMK SLP103 T02630222
NSTU 221550Z 12012KT 10SM SCT020 BKN040 BKN100 26/22 A2983 RMK SLP103 T02630222
NSTU 221500Z 13012KT 10SM SCT019 BKN040 OVC100 26/22 A2983 RMK SLP103 8/82/ T02630215 56014
NSTU 221450Z 13012KT 10SM SCT019 BKN040 OVC100 26/22 A2983 RMK SLP103 8/82/ T02630215 56014
NSTU 221400Z 15011KT 10SM SCT019 BKN040 OVC100 26/23 A2983 RMK SLP103 T02620226
NSTU 221350Z 15011KT 10SM SCT019 BKN040 OVC100 26/23 A2983 RMK SLP103 T02620226
NSTU 221300Z 15013KT 10SM SCT018 BKN040 OVC100 26/23 A2986 RMK SLP112 T02590226
NSTU 221250Z 15013KT 10SM SCT018 BKN040 OVC100 26/23 A2986 RMK SLP112 T02590226
NSTU 221200Z 14012KT 10SM SCT018 BKN040 OVC100 26/22 A2987 RMK SLP117 70056 8/82/ T02580223 10258 20251 58014
NSTU 221150Z 14012KT 10SM SCT018 BKN040 OVC100 26/22 A2987 RMK SLP117 70056 8/82/ T02580223 10258 20251 58014
NSTU 221100Z 15012KT 10SM SCT016 BKN035 OVC100 26/22 A2989 RMK SHRAE20 SLP124 T02550223 403040245
NSTU 221050Z 15012KT 10SM SCT016 BKN035 OVC100 26/22 A2989 RMK SHRAE20 SLP124 T02550223 403040245
NSTU 221000Z 15015KT 10SM -SHRA SCT015TCU BKN035 OVC100 25/23 A2990 RMK TCU ALQDS SLP127 T02510228
NSTU 220950Z 15015KT 10SM -SHRA SCT015TCU BKN035 OVC100 25/23 A2990 RMK TCU ALQDS SLP127 T02510228
NSTU 220900Z 15012KT 10SM -SHRA SCT016TCU BKN035 OVC100 26/23 A2991 RMK TCU ALQDS SLP130 60000 8/42/ T02550229 52010
NSTU 220850Z 15012KT 10SM -SHRA SCT016TCU BKN035 OVC100 26/23 A2991 RMK TCU ALQDS SLP130 60000 8/42/ T02550229 52010
NSTU 220700Z 16014G21KT 10SM -SHRA SCT016TCU BKN035 OVC100 25/23 A2990 RMK TCU ALQDS SLP125 T02520230
NSTU 220650Z 16014G21KT 10SM -SHRA SCT016TCU BKN035 OVC100 25/23 A2990 RMK TCU ALQDS SLP125 T02520230
NSTU 220600Z 18013KT 6SM -SHRA FEW008 BKN014TCU OVC035 25/23 A2988 RMK TCU ALQDS SLP120 60052 8/4// T02520232 10279 20245 52014
NSTU 220550Z 18013KT 6SM -SHRA FEW008 BKN014TCU OVC035 25/23 A2988 RMK TCU ALQDS SLP120 60052 8/4// T02520232 10279 20245 52014
NSTU 220500Z 19013G19KT 5SM SHRA FEW008 BKN014TCU OVC035 25/23 A2987 RMK TCU ALQDS SLP113 T02470228
NSTU 220450Z 19013G19KT 5SM SHRA FEW008 BKN014TCU OVC035 25/23 A2987 RMK TCU ALQDS SLP113 T02470228
NSTU 220300Z 23011KT 1SM -SHRA BKN014TCU OVC035 25/22 A2984 RMK SHRAB40 TCU ALQDS SLP107 60000 8/4// T02460221 57003
NSTU 220250Z 23011KT 1SM -SHRA BKN014TCU OVC035 25/22 A2984 RMK SHRAB40 TCU ALQDS SLP107 60000 8/4// T02460221 57003
NSTU 220200Z 10007KT 11SM SCT018TCU BKN040 OVC100 28/25 A2985 RMK SHRAE45 TCU N-E-S SLP110 60004 8/42/ T02790249 10304 20273 57015
NSTU 220150Z VRB05KT 12SM SCT018TCU BKN040 OVC100 27/24 A2984 RMK TCU SW-W-NW SLP105 T02680238
NSTU 220000Z 09010KT 12SM FEW020 BKN100 30/25 A2990 RMK SLP125 8/170 T03040252 52008
NSTU 212250Z 10012KT 11SM -SHRA SCT018TCU BKN040 OVC100 29/25 A2986 RMK TCU W-N-NE SLP113 T02850249
NSTU 212050Z 09010KT 12SM FEW020 BKN100 30/25 A2990 RMK SLP125 8/170 T03040252 52008
NSTU 211900Z 10011KT 12SM FEW020 SCT040 BKN120 28/24 A2989 RMK SLP122 T02810243
NSTU 211850Z 10011KT 12SM FEW020 SCT040 BKN120 28/24 A2989 RMK SLP122 T02810243
NSTU 211800Z 10008KT 12SM SCT016TCU BKN040 BKN180 27/24 A2987 RMK TCU SW AND NW SLP117 8/401 T02730241 10273 20269 52014
NSTU 211750Z 10008KT 12SM SCT016TCU BKN040 BKN180 27/24 A2987 RMK TCU SW AND NW SLP117 8/401 T02730241 10273 20269 52014
NSTU 211700Z 10011KT 10SM FEW021 SCT040 BKN100 27/24 A2985 RMK SLP108 T02690238
NSTU 211650Z 10011KT 10SM FEW021 SCT040 BKN100 27/24 A2985 RMK SLP108 T02690238
NSTU 211600Z 12009KT 10SM FEW020 SCT040 SCT100 27/24 A2983 RMK SLP103 T02690239
NSTU 211550Z 12009KT 10SM FEW020 SCT040 SCT100 27/24 A2983 RMK SLP103 T02690239
NSTU 211500Z 11010KT 10SM FEW020 FEW040 SCT100 27/24 A2983 RMK SLP103 8/870 T02690238 57010
NSTU 211450Z 11010KT 10SM FEW020 FEW040 SCT100 27/24 A2983 RMK SLP103 8/870 T02690238 57010
NSTU 211351Z 12012KT 10SM FEW020 FEW040 SCT100 27/24 A2984 RMK SLP105 T02700235
NSTU 211300Z 12012KT 10SM FEW020 FEW040 SCT100 27/23 A2986 RMK SLP112 T02700234
NSTU 211250Z 12012KT 10SM FEW020 FEW040 SCT100 27/23 A2986 RMK SLP112 T02700234
NSTU 211200Z 12011KT 10SM FEW020 SCT040 BKN100 27/24 A2987 RMK SLP113 60000 70018 8/870 T02710236 10276 20271 57015
NSTU 211150Z 12011KT 10SM FEW020 SCT040 BKN100 27/24 A2987 RMK SLP113 60000 70018 8/870 T02710236 10276 20271 57015
NSTU 211100Z 12012KT 10SM FEW018 SCT040 BKN100 27/23 A2989 RMK SLP122 T02720234 403000249
NSTU 211050Z 12012KT 10SM FEW018 SCT040 BKN100 27/23 A2989 RMK SLP122 T02720234 403000249
NSTU 211000Z 12010KT 10SM SCT016 SCT040 BKN100 27/24 A2990 RMK SLP127 T02720236
NSTU 210950Z 12010KT 10SM SCT016 SCT040 BKN100 27/24 A2990 RMK SLP127 T02720236
NSTU 210900Z 13012KT 10SM SCT016 SCT040 BKN100 27/24 A2991 RMK SHRAB00E17 SLP129 60000 8/470 T02720240 52008
NSTU 210850Z 13012KT 10SM SCT016 SCT040 BKN100 27/24 A2991 RMK SHRAB00E17 SLP129 60000 8/470 T02720240 52008
NSTU 210800Z 11016G20KT 10SM SCT016TCU BKN040 OVC100 28/24 A2992 RMK TCU ALQDS SLP130 T02750238
NSTU 210750Z 11016G20KT 10SM SCT016TCU BKN040 OVC100 28/24 A2992 RMK TCU ALQDS SLP130 T02750238
NSTU 210700Z 13011KT 10SM SCT016 BKN210 28/24 A2990 RMK SLP127 T02760241
NSTU 210650Z 13011KT 10SM SCT016 BKN210 28/24 A2990 RMK SLP127 T02760241
NSTU 210600Z 13012KT 11SM SCT018 BKN210 28/24 A2988 RMK SLP120 8/101 T02760236 10300 20276 52007
NSTU 210550Z 13012KT 11SM SCT018 BKN210 28/24 A2988 RMK SLP120 8/101 T02760236 10300 20276 52007
NSTU 210500Z 12010KT 11SM SCT018 BKN210 28/23 A2988 RMK SLP119 T02770231
NSTU 210300Z 14009KT 12SM FEW017TCU SCT100 29/24 A2987 RMK TCU W-N SLP113 8/270 T02860244 57017
NSTU 210250Z 14009KT 12SM FEW017TCU SCT100 29/24 A2987 RMK TCU W-N SLP113 8/270 T02860244 57017
NSTU 210151Z 14008KT 12SM SCT020TCU SCT040 BKN100 29/24 A2987 RMK TCU NW-N SLP115 T02860242
NSTU 210100Z 15008KT 12SM SCT020TCU SCT040 BKN100 29/24 A2988 RMK TCU NW-N-NE SLP120 T02860241
NSTU 210050Z 15008KT 12SM SCT020TCU SCT040 BKN100 29/24 A2988 RMK TCU NW-N-NE SLP120 T02860241
NSTU 210000Z 14007KT 12SM SCT020TCU SCT040 BKN100 30/25 A2991 RMK TCU NW-N-NE SLP130 60015 8/870 T03000247 10300 20249 57014
NSTU 202350Z 14007KT 12SM SCT020TCU SCT040 BKN100 30/25 A2991 RMK TCU NW-N-NE SLP130 60015 8/870 T03000247 10300 20249 57014
NSTU 202300Z 13007KT 12SM SCT020TCU SCT040 BKN100 29/24 A2993 RMK TCU W-N SLP134 T02890241
NSTU 202250Z 13007KT 12SM SCT020TCU SCT040 BKN100 29/24 A2993 RMK TCU W-N SLP134 T02890241
NSTU 202200Z VRB03KT 12SM SCT023 BKN100 BKN220 29/25 A2994 RMK SLP141 T02910248
NSTU 202150Z VRB03KT 12SM SCT023 BKN100 BKN220 29/25 A2994 RMK SLP141 T02910248
NSTU 202100Z VRB02KT 12SM SCT021 SCT100 BKN220 28/24 A2995 RMK SLP144 60015 8/171 T02820240 52008
NSTU 202050Z VRB02KT 12SM SCT021 SCT100 BKN220 28/24 A2995 RMK SLP144 60015 8/171 T02820240 52008
NSTU 202000Z 00000KT 12SM FEW023 BKN100 BKN220 28/24 A2995 RMK SHRAE23 SLP144 T02790240
NSTU 201950Z 00000KT 12SM FEW023 BKN100 BKN220 28/24 A2995 RMK SHRAE23 SLP144 T02790240